sensor_id;sensor_type;location;lat;lon;timestamp;P1;durP1;ratioP1;P2;durP2;ratioP2
51957;SDS011;41120;51.820;20.804;2023-04-15T00:04:23;8.27;;;5.63;;
51957;SDS011;41120;51.820;20.804;2023-04-15T00:07:36;7.47;;;5.57;;
51957;SDS011;41120;51.820;20.804;2023-04-15T00:10:30;10.43;;;6.07;;
51957;SDS011;41120;51.820;20.804;2023-04-15T00:19:29;12.10;;;5.90;;
51957;SDS011;41120;51.820;20.804;2023-04-15T00:21:58;7.63;;;5.83;;
51957;SDS011;41120;51.820;20.804;2023-04-15T00:27:01;7.70;;;6.13;;
51957;SDS011;41120;51.820;20.804;2023-04-15T00:29:31;9.77;;;6.80;;
51957;SDS011;41120;51.820;20.804;2023-04-15T00:32:11;9.40;;;6.47;;
51957;SDS011;41120;51.820;20.804;2023-04-15T00:34:53;8.70;;;6.50;;
51957;SDS011;41120;51.820;20.804;2023-04-15T00:40:18;8.53;;;7.03;;
51957;SDS011;41120;51.820;20.804;2023-04-15T00:42:54;9.70;;;7.63;;
51957;SDS011;41120;51.820;20.804;2023-04-15T00:45:26;13.70;;;8.43;;
51957;SDS011;41120;51.820;20.804;2023-04-15T00:50:41;15.27;;;8.87;;
51957;SDS011;41120;51.820;20.804;2023-04-15T00:53:16;12.47;;;9.43;;
51957;SDS011;41120;51.820;20.804;2023-04-15T00:58:56;13.53;;;8.50;;
51957;SDS011;41120;51.820;20.804;2023-04-15T01:09:53;14.73;;;9.93;;
51957;SDS011;41120;51.820;20.804;2023-04-15T01:12:33;12.43;;;9.17;;
51957;SDS011;41120;51.820;20.804;2023-04-15T01:17:59;14.00;;;9.77;;
51957;SDS011;41120;51.820;20.804;2023-04-15T01:20:39;14.40;;;11.27;;
51957;SDS011;41120;51.820;20.804;2023-04-15T01:23:24;12.57;;;10.40;;
51957;SDS011;41120;51.820;20.804;2023-04-15T01:29:04;15.23;;;10.95;;
51957;SDS011;41120;51.820;20.804;2023-04-15T01:31:36;13.00;;;9.23;;
51957;SDS011;41120;51.820;20.804;2023-04-15T01:42:59;16.40;;;11.38;;
51957;SDS011;41120;51.820;20.804;2023-04-15T01:45:48;16.93;;;11.73;;
51957;SDS011;41120;51.820;20.804;2023-04-15T01:54:03;14.03;;;10.07;;
51957;SDS011;41120;51.820;20.804;2023-04-15T01:59:04;18.63;;;11.63;;
51957;SDS011;41120;51.820;20.804;2023-04-15T02:04:21;19.57;;;12.13;;
51957;SDS011;41120;51.820;20.804;2023-04-15T02:13:45;21.37;;;13.47;;
51957;SDS011;41120;51.820;20.804;2023-04-15T02:16:28;20.73;;;12.87;;
51957;SDS011;41120;51.820;20.804;2023-04-15T02:18:56;20.27;;;14.33;;
51957;SDS011;41120;51.820;20.804;2023-04-15T02:21:25;22.52;;;14.90;;
51957;SDS011;41120;51.820;20.804;2023-04-15T02:26:31;25.90;;;16.05;;
51957;SDS011;41120;51.820;20.804;2023-04-15T02:29:00;24.00;;;16.03;;
51957;SDS011;41120;51.820;20.804;2023-04-15T02:31:40;23.50;;;16.23;;
51957;SDS011;41120;51.820;20.804;2023-04-15T02:34:25;24.10;;;15.53;;
51957;SDS011;41120;51.820;20.804;2023-04-15T02:36:57;27.37;;;16.27;;
51957;SDS011;41120;51.820;20.804;2023-04-15T02:39:37;26.27;;;15.67;;
51957;SDS011;41120;51.820;20.804;2023-04-15T02:50:31;22.20;;;15.20;;
51957;SDS011;41120;51.820;20.804;2023-04-15T02:53:03;29.20;;;16.75;;
51957;SDS011;41120;51.820;20.804;2023-04-15T02:55:45;26.30;;;16.15;;
51957;SDS011;41120;51.820;20.804;2023-04-15T02:58:16;26.50;;;17.50;;
51957;SDS011;41120;51.820;20.804;2023-04-15T03:00:42;26.10;;;16.63;;
51957;SDS011;41120;51.820;20.804;2023-04-15T03:03:15;26.83;;;15.93;;
51957;SDS011;41120;51.820;20.804;2023-04-15T03:05:50;23.20;;;14.73;;
51957;SDS011;41120;51.820;20.804;2023-04-15T03:10:57;28.27;;;17.85;;
51957;SDS011;41120;51.820;20.804;2023-04-15T03:15:59;28.10;;;17.77;;
51957;SDS011;41120;51.820;20.804;2023-04-15T03:23:37;32.63;;;17.20;;
51957;SDS011;41120;51.820;20.804;2023-04-15T03:29:26;27.33;;;17.53;;
51957;SDS011;41120;51.820;20.804;2023-04-15T03:34:29;28.30;;;17.13;;
51957;SDS011;41120;51.820;20.804;2023-04-15T03:39:27;31.87;;;18.20;;
51957;SDS011;41120;51.820;20.804;2023-04-15T03:41:54;26.90;;;15.77;;
51957;SDS011;41120;51.820;20.804;2023-04-15T03:44:21;26.90;;;16.47;;
51957;SDS011;41120;51.820;20.804;2023-04-15T03:46:50;30.83;;;17.63;;
51957;SDS011;41120;51.820;20.804;2023-04-15T03:49:22;27.50;;;17.47;;
51957;SDS011;41120;51.820;20.804;2023-04-15T03:51:55;30.80;;;17.73;;
51957;SDS011;41120;51.820;20.804;2023-04-15T03:54:35;31.08;;;17.67;;
51957;SDS011;41120;51.820;20.804;2023-04-15T03:57:02;30.93;;;17.90;;
51957;SDS011;41120;51.820;20.804;2023-04-15T03:59:30;29.00;;;17.52;;
51957;SDS011;41120;51.820;20.804;2023-04-15T04:02:02;31.37;;;17.63;;
51957;SDS011;41120;51.820;20.804;2023-04-15T04:04:38;28.33;;;18.63;;
51957;SDS011;41120;51.820;20.804;2023-04-15T04:10:01;30.03;;;18.27;;
51957;SDS011;41120;51.820;20.804;2023-04-15T04:12:34;28.00;;;17.47;;
51957;SDS011;41120;51.820;20.804;2023-04-15T04:15:02;29.08;;;18.60;;
51957;SDS011;41120;51.820;20.804;2023-04-15T04:17:34;31.83;;;19.87;;
51957;SDS011;41120;51.820;20.804;2023-04-15T04:20:02;28.42;;;18.15;;
51957;SDS011;41120;51.820;20.804;2023-04-15T04:25:35;31.40;;;19.60;;
51957;SDS011;41120;51.820;20.804;2023-04-15T04:28:03;30.53;;;18.57;;
51957;SDS011;41120;51.820;20.804;2023-04-15T04:33:18;29.53;;;19.30;;
51957;SDS011;41120;51.820;20.804;2023-04-15T04:35:54;29.60;;;17.50;;
51957;SDS011;41120;51.820;20.804;2023-04-15T04:41:23;29.67;;;18.75;;
51957;SDS011;41120;51.820;20.804;2023-04-15T04:44:03;27.50;;;17.30;;
51957;SDS011;41120;51.820;20.804;2023-04-15T04:51:53;30.53;;;17.93;;
51957;SDS011;41120;51.820;20.804;2023-04-15T04:54:24;29.37;;;17.87;;
51957;SDS011;41120;51.820;20.804;2023-04-15T04:56:52;29.33;;;18.53;;
51957;SDS011;41120;51.820;20.804;2023-04-15T04:59:34;26.83;;;16.50;;
51957;SDS011;41120;51.820;20.804;2023-04-15T05:02:02;27.93;;;18.27;;
51957;SDS011;41120;51.820;20.804;2023-04-15T05:04:30;29.47;;;18.60;;
51957;SDS011;41120;51.820;20.804;2023-04-15T05:09:54;29.57;;;18.53;;
51957;SDS011;41120;51.820;20.804;2023-04-15T05:12:20;31.07;;;19.30;;
51957;SDS011;41120;51.820;20.804;2023-04-15T05:17:57;27.65;;;18.98;;
51957;SDS011;41120;51.820;20.804;2023-04-15T05:23:26;27.70;;;18.47;;
51957;SDS011;41120;51.820;20.804;2023-04-15T05:29:00;32.77;;;19.03;;
51957;SDS011;41120;51.820;20.804;2023-04-15T05:34:21;28.70;;;18.37;;
51957;SDS011;41120;51.820;20.804;2023-04-15T05:42:03;28.20;;;18.80;;
51957;SDS011;41120;51.820;20.804;2023-04-15T05:44:37;26.20;;;16.93;;
51957;SDS011;41120;51.820;20.804;2023-04-15T05:47:03;27.27;;;19.07;;
51957;SDS011;41120;51.820;20.804;2023-04-15T05:49:45;30.07;;;19.43;;
51957;SDS011;41120;51.820;20.804;2023-04-15T05:54:47;32.43;;;21.63;;
51957;SDS011;41120;51.820;20.804;2023-04-15T05:59:45;38.27;;;23.47;;
51957;SDS011;41120;51.820;20.804;2023-04-15T06:05:00;33.70;;;21.67;;
51957;SDS011;41120;51.820;20.804;2023-04-15T06:07:28;33.00;;;20.93;;
51957;SDS011;41120;51.820;20.804;2023-04-15T06:09:56;31.83;;;21.03;;
51957;SDS011;41120;51.820;20.804;2023-04-15T06:12:25;33.03;;;20.57;;
51957;SDS011;41120;51.820;20.804;2023-04-15T06:14:55;30.40;;;21.37;;
51957;SDS011;41120;51.820;20.804;2023-04-15T06:20:21;32.23;;;20.93;;
51957;SDS011;41120;51.820;20.804;2023-04-15T06:22:49;33.10;;;21.57;;
51957;SDS011;41120;51.820;20.804;2023-04-15T06:25:17;32.77;;;21.57;;
51957;SDS011;41120;51.820;20.804;2023-04-15T06:27:46;32.27;;;20.47;;
51957;SDS011;41120;51.820;20.804;2023-04-15T06:30:14;33.87;;;21.93;;
51957;SDS011;41120;51.820;20.804;2023-04-15T06:32:49;34.37;;;21.77;;
51957;SDS011;41120;51.820;20.804;2023-04-15T06:35:14;31.30;;;20.83;;
51957;SDS011;41120;51.820;20.804;2023-04-15T06:37:42;34.90;;;20.07;;
51957;SDS011;41120;51.820;20.804;2023-04-15T06:40:09;28.33;;;19.63;;
51957;SDS011;41120;51.820;20.804;2023-04-15T06:42:37;35.63;;;21.57;;
51957;SDS011;41120;51.820;20.804;2023-04-15T06:45:03;30.23;;;20.47;;
51957;SDS011;41120;51.820;20.804;2023-04-15T06:47:31;32.30;;;20.53;;
51957;SDS011;41120;51.820;20.804;2023-04-15T06:49:57;31.57;;;20.60;;
51957;SDS011;41120;51.820;20.804;2023-04-15T06:52:23;31.03;;;20.57;;
51957;SDS011;41120;51.820;20.804;2023-04-15T06:54:51;30.07;;;19.97;;
51957;SDS011;41120;51.820;20.804;2023-04-15T06:57:20;25.97;;;16.00;;
51957;SDS011;41120;51.820;20.804;2023-04-15T06:59:53;28.63;;;19.70;;
51957;SDS011;41120;51.820;20.804;2023-04-15T07:05:21;27.37;;;19.77;;
51957;SDS011;41120;51.820;20.804;2023-04-15T07:07:54;29.80;;;18.53;;
51957;SDS011;41120;51.820;20.804;2023-04-15T07:10:22;28.47;;;19.57;;
51957;SDS011;41120;51.820;20.804;2023-04-15T07:12:59;29.30;;;18.87;;
51957;SDS011;41120;51.820;20.804;2023-04-15T07:15:31;30.43;;;19.20;;
51957;SDS011;41120;51.820;20.804;2023-04-15T07:18:04;26.63;;;18.42;;
51957;SDS011;41120;51.820;20.804;2023-04-15T07:23:16;24.00;;;15.83;;
51957;SDS011;41120;51.820;20.804;2023-04-15T07:28:25;24.93;;;16.90;;
51957;SDS011;41120;51.820;20.804;2023-04-15T07:30:58;24.60;;;15.90;;
51957;SDS011;41120;51.820;20.804;2023-04-15T07:38:55;24.27;;;16.03;;
51957;SDS011;41120;51.820;20.804;2023-04-15T07:44:18;20.07;;;13.73;;
51957;SDS011;41120;51.820;20.804;2023-04-15T07:46:45;23.57;;;16.63;;
51957;SDS011;41120;51.820;20.804;2023-04-15T07:49:19;23.03;;;15.70;;
51957;SDS011;41120;51.820;20.804;2023-04-15T07:59:58;20.47;;;15.73;;
51957;SDS011;41120;51.820;20.804;2023-04-15T08:08:25;18.30;;;13.27;;
51957;SDS011;41120;51.820;20.804;2023-04-15T08:10:59;19.77;;;15.03;;
51957;SDS011;41120;51.820;20.804;2023-04-15T08:13:25;19.70;;;15.20;;
51957;SDS011;41120;51.820;20.804;2023-04-15T08:19:18;20.67;;;15.20;;
51957;SDS011;41120;51.820;20.804;2023-04-15T08:30:04;20.10;;;15.47;;
51957;SDS011;41120;51.820;20.804;2023-04-15T08:32:36;17.87;;;14.23;;
51957;SDS011;41120;51.820;20.804;2023-04-15T08:35:04;18.77;;;14.50;;
51957;SDS011;41120;51.820;20.804;2023-04-15T08:37:37;19.30;;;14.97;;
51957;SDS011;41120;51.820;20.804;2023-04-15T08:45:55;15.03;;;13.10;;
51957;SDS011;41120;51.820;20.804;2023-04-15T08:48:36;15.50;;;12.10;;
51957;SDS011;41120;51.820;20.804;2023-04-15T08:51:03;16.40;;;12.67;;
51957;SDS011;41120;51.820;20.804;2023-04-15T08:53:36;18.17;;;14.17;;
51957;SDS011;41120;51.820;20.804;2023-04-15T08:56:10;18.27;;;14.00;;
51957;SDS011;41120;51.820;20.804;2023-04-15T09:02:00;16.17;;;12.93;;
51957;SDS011;41120;51.820;20.804;2023-04-15T09:07:04;13.83;;;11.00;;
51957;SDS011;41120;51.820;20.804;2023-04-15T09:09:32;13.20;;;10.20;;
51957;SDS011;41120;51.820;20.804;2023-04-15T09:12:05;14.03;;;11.30;;
51957;SDS011;41120;51.820;20.804;2023-04-15T09:14:33;13.67;;;11.07;;
51957;SDS011;41120;51.820;20.804;2023-04-15T09:17:01;16.70;;;12.67;;
51957;SDS011;41120;51.820;20.804;2023-04-15T09:19:29;15.30;;;12.03;;
51957;SDS011;41120;51.820;20.804;2023-04-15T09:22:01;13.73;;;10.63;;
51957;SDS011;41120;51.820;20.804;2023-04-15T09:24:36;13.57;;;10.07;;
51957;SDS011;41120;51.820;20.804;2023-04-15T09:27:06;15.33;;;11.43;;
51957;SDS011;41120;51.820;20.804;2023-04-15T09:29:32;14.87;;;11.60;;
51957;SDS011;41120;51.820;20.804;2023-04-15T09:32:11;14.27;;;11.77;;
51957;SDS011;41120;51.820;20.804;2023-04-15T09:34:41;13.73;;;10.90;;
51957;SDS011;41120;51.820;20.804;2023-04-15T09:37:10;14.47;;;10.83;;
51957;SDS011;41120;51.820;20.804;2023-04-15T09:39:45;13.77;;;9.97;;
51957;SDS011;41120;51.820;20.804;2023-04-15T09:42:17;12.60;;;10.50;;
51957;SDS011;41120;51.820;20.804;2023-04-15T09:47:43;12.23;;;9.93;;
51957;SDS011;41120;51.820;20.804;2023-04-15T09:50:09;14.50;;;10.90;;
51957;SDS011;41120;51.820;20.804;2023-04-15T09:52:40;12.63;;;10.27;;
51957;SDS011;41120;51.820;20.804;2023-04-15T09:55:10;13.47;;;10.80;;
51957;SDS011;41120;51.820;20.804;2023-04-15T09:57:44;13.53;;;11.33;;
51957;SDS011;41120;51.820;20.804;2023-04-15T10:00:19;13.77;;;10.97;;
51957;SDS011;41120;51.820;20.804;2023-04-15T10:02:45;17.60;;;12.63;;
51957;SDS011;41120;51.820;20.804;2023-04-15T10:05:19;13.43;;;11.03;;
51957;SDS011;41120;51.820;20.804;2023-04-15T10:10:17;11.40;;;10.07;;
51957;SDS011;41120;51.820;20.804;2023-04-15T10:12:45;12.77;;;10.50;;
51957;SDS011;41120;51.820;20.804;2023-04-15T10:17:45;12.67;;;10.00;;
51957;SDS011;41120;51.820;20.804;2023-04-15T10:20:16;11.80;;;9.33;;
51957;SDS011;41120;51.820;20.804;2023-04-15T10:22:45;12.40;;;10.17;;
51957;SDS011;41120;51.820;20.804;2023-04-15T10:25:11;10.50;;;9.40;;
51957;SDS011;41120;51.820;20.804;2023-04-15T10:27:41;9.30;;;8.00;;
51957;SDS011;41120;51.820;20.804;2023-04-15T10:30:08;11.13;;;8.20;;
51957;SDS011;41120;51.820;20.804;2023-04-15T10:32:43;9.20;;;8.17;;
51957;SDS011;41120;51.820;20.804;2023-04-15T10:35:12;8.17;;;6.83;;
51957;SDS011;41120;51.820;20.804;2023-04-15T10:37:42;7.57;;;6.60;;
51957;SDS011;41120;51.820;20.804;2023-04-15T10:40:26;7.15;;;5.80;;
51957;SDS011;41120;51.820;20.804;2023-04-15T10:45:49;5.20;;;3.60;;
51957;SDS011;41120;51.820;20.804;2023-04-15T10:48:15;5.30;;;4.80;;
51957;SDS011;41120;51.820;20.804;2023-04-15T10:50:50;4.57;;;4.07;;
51957;SDS011;41120;51.820;20.804;2023-04-15T10:53:31;3.97;;;3.50;;
51957;SDS011;41120;51.820;20.804;2023-04-15T10:56:05;4.87;;;3.80;;
51957;SDS011;41120;51.820;20.804;2023-04-15T10:58:41;3.33;;;2.80;;
51957;SDS011;41120;51.820;20.804;2023-04-15T11:03:44;4.77;;;3.43;;
51957;SDS011;41120;51.820;20.804;2023-04-15T11:12:06;4.03;;;2.73;;
51957;SDS011;41120;51.820;20.804;2023-04-15T11:14:41;3.87;;;2.77;;
51957;SDS011;41120;51.820;20.804;2023-04-15T11:17:11;4.30;;;3.10;;
51957;SDS011;41120;51.820;20.804;2023-04-15T11:22:15;3.53;;;1.90;;
51957;SDS011;41120;51.820;20.804;2023-04-15T11:24:47;3.43;;;1.87;;
51957;SDS011;41120;51.820;20.804;2023-04-15T11:27:21;2.77;;;2.10;;
51957;SDS011;41120;51.820;20.804;2023-04-15T11:29:48;0.80;;;0.80;;
51957;SDS011;41120;51.820;20.804;2023-04-15T11:32:20;0.57;;;0.50;;
51957;SDS011;41120;51.820;20.804;2023-04-15T11:34:47;1.33;;;0.83;;
51957;SDS011;41120;51.820;20.804;2023-04-15T11:40:11;1.40;;;0.90;;
51957;SDS011;41120;51.820;20.804;2023-04-15T11:42:45;2.50;;;1.40;;
51957;SDS011;41120;51.820;20.804;2023-04-15T11:50:40;2.57;;;1.33;;
51957;SDS011;41120;51.820;20.804;2023-04-15T11:53:10;2.60;;;1.33;;
51957;SDS011;41120;51.820;20.804;2023-04-15T11:55:49;1.40;;;1.30;;
51957;SDS011;41120;51.820;20.804;2023-04-15T11:58:23;2.30;;;1.47;;
51957;SDS011;41120;51.820;20.804;2023-04-15T12:03:42;2.60;;;2.30;;
51957;SDS011;41120;51.820;20.804;2023-04-15T12:06:15;2.47;;;1.40;;
51957;SDS011;41120;51.820;20.804;2023-04-15T12:14:45;3.03;;;1.63;;
51957;SDS011;41120;51.820;20.804;2023-04-15T12:17:13;1.50;;;1.17;;
51957;SDS011;41120;51.820;20.804;2023-04-15T12:22:15;1.07;;;0.83;;
51957;SDS011;41120;51.820;20.804;2023-04-15T12:27:35;1.40;;;1.00;;
51957;SDS011;41120;51.820;20.804;2023-04-15T12:30:06;1.42;;;0.85;;
51957;SDS011;41120;51.820;20.804;2023-04-15T12:36:02;3.93;;;1.50;;
51957;SDS011;41120;51.820;20.804;2023-04-15T12:38:46;2.07;;;1.40;;
51957;SDS011;41120;51.820;20.804;2023-04-15T12:41:15;1.00;;;0.80;;
51957;SDS011;41120;51.820;20.804;2023-04-15T12:46:16;2.10;;;0.80;;
51957;SDS011;41120;51.820;20.804;2023-04-15T12:48:55;2.00;;;0.70;;
51957;SDS011;41120;51.820;20.804;2023-04-15T12:51:33;1.87;;;1.20;;
51957;SDS011;41120;51.820;20.804;2023-04-15T12:54:09;0.97;;;0.63;;
51957;SDS011;41120;51.820;20.804;2023-04-15T12:56:56;2.83;;;0.60;;
51957;SDS011;41120;51.820;20.804;2023-04-15T12:59:24;0.70;;;0.60;;
51957;SDS011;41120;51.820;20.804;2023-04-15T13:04:46;1.20;;;0.60;;
51957;SDS011;41120;51.820;20.804;2023-04-15T13:07:18;1.10;;;0.60;;
51957;SDS011;41120;51.820;20.804;2023-04-15T13:09:49;1.23;;;0.85;;
51957;SDS011;41120;51.820;20.804;2023-04-15T13:12:16;1.73;;;0.70;;
51957;SDS011;41120;51.820;20.804;2023-04-15T13:14:44;2.27;;;0.97;;
51957;SDS011;41120;51.820;20.804;2023-04-15T13:17:12;1.90;;;0.80;;
51957;SDS011;41120;51.820;20.804;2023-04-15T13:19:40;0.90;;;0.73;;
51957;SDS011;41120;51.820;20.804;2023-04-15T13:22:06;1.43;;;0.70;;
51957;SDS011;41120;51.820;20.804;2023-04-15T13:24:34;1.73;;;0.83;;
51957;SDS011;41120;51.820;20.804;2023-04-15T13:27:02;0.90;;;0.63;;
51957;SDS011;41120;51.820;20.804;2023-04-15T13:29:28;0.77;;;0.70;;
51957;SDS011;41120;51.820;20.804;2023-04-15T13:34:59;1.10;;;0.70;;
51957;SDS011;41120;51.820;20.804;2023-04-15T13:37:34;0.70;;;0.70;;
51957;SDS011;41120;51.820;20.804;2023-04-15T13:40:12;1.30;;;0.80;;
51957;SDS011;41120;51.820;20.804;2023-04-15T13:42:54;1.10;;;0.60;;
51957;SDS011;41120;51.820;20.804;2023-04-15T13:45:31;1.80;;;1.13;;
51957;SDS011;41120;51.820;20.804;2023-04-15T13:48:09;1.53;;;0.77;;
51957;SDS011;41120;51.820;20.804;2023-04-15T13:50:35;1.40;;;0.90;;
51957;SDS011;41120;51.820;20.804;2023-04-15T13:53:06;1.53;;;1.20;;
51957;SDS011;41120;51.820;20.804;2023-04-15T13:55:32;1.07;;;0.80;;
51957;SDS011;41120;51.820;20.804;2023-04-15T13:58:00;1.23;;;1.10;;
51957;SDS011;41120;51.820;20.804;2023-04-15T14:00:26;2.63;;;1.20;;
51957;SDS011;41120;51.820;20.804;2023-04-15T14:02:54;1.13;;;0.90;;
51957;SDS011;41120;51.820;20.804;2023-04-15T14:05:26;1.70;;;0.67;;
51957;SDS011;41120;51.820;20.804;2023-04-15T14:07:53;1.93;;;1.10;;
51957;SDS011;41120;51.820;20.804;2023-04-15T14:10:19;1.57;;;0.90;;
51957;SDS011;41120;51.820;20.804;2023-04-15T14:12:47;1.00;;;0.90;;
51957;SDS011;41120;51.820;20.804;2023-04-15T14:18:17;2.43;;;1.27;;
51957;SDS011;41120;51.820;20.804;2023-04-15T14:20:45;1.48;;;1.30;;
51957;SDS011;41120;51.820;20.804;2023-04-15T14:23:16;2.47;;;0.97;;
51957;SDS011;41120;51.820;20.804;2023-04-15T14:26:00;3.57;;;1.40;;
51957;SDS011;41120;51.820;20.804;2023-04-15T14:28:43;1.60;;;1.20;;
51957;SDS011;41120;51.820;20.804;2023-04-15T14:34:11;3.10;;;1.40;;
51957;SDS011;41120;51.820;20.804;2023-04-15T14:40:32;1.53;;;1.27;;
51957;SDS011;41120;51.820;20.804;2023-04-15T14:48:36;3.43;;;2.17;;
51957;SDS011;41120;51.820;20.804;2023-04-15T14:51:20;5.83;;;2.67;;
51957;SDS011;41120;51.820;20.804;2023-04-15T14:53:50;3.87;;;2.73;;
51957;SDS011;41120;51.820;20.804;2023-04-15T14:56:19;4.07;;;2.27;;
51957;SDS011;41120;51.820;20.804;2023-04-15T14:58:46;3.73;;;2.10;;
51957;SDS011;41120;51.820;20.804;2023-04-15T15:01:18;4.07;;;2.13;;
51957;SDS011;41120;51.820;20.804;2023-04-15T15:03:57;3.50;;;2.00;;
51957;SDS011;41120;51.820;20.804;2023-04-15T15:06:23;2.33;;;1.63;;
51957;SDS011;41120;51.820;20.804;2023-04-15T15:11:22;3.50;;;1.40;;
51957;SDS011;41120;51.820;20.804;2023-04-15T15:16:19;2.13;;;1.40;;
51957;SDS011;41120;51.820;20.804;2023-04-15T15:18:47;1.83;;;1.37;;
51957;SDS011;41120;51.820;20.804;2023-04-15T15:21:17;2.57;;;1.57;;
51957;SDS011;41120;51.820;20.804;2023-04-15T15:23:46;2.63;;;1.83;;
51957;SDS011;41120;51.820;20.804;2023-04-15T15:26:12;2.90;;;1.60;;
51957;SDS011;41120;51.820;20.804;2023-04-15T15:31:18;2.17;;;1.33;;
51957;SDS011;41120;51.820;20.804;2023-04-15T15:33:44;1.93;;;1.40;;
51957;SDS011;41120;51.820;20.804;2023-04-15T15:36:12;2.40;;;1.20;;
51957;SDS011;41120;51.820;20.804;2023-04-15T15:38:39;1.93;;;1.20;;
51957;SDS011;41120;51.820;20.804;2023-04-15T15:43:44;1.53;;;1.43;;
51957;SDS011;41120;51.820;20.804;2023-04-15T15:46:13;3.60;;;1.60;;
51957;SDS011;41120;51.820;20.804;2023-04-15T15:48:44;2.73;;;2.10;;
51957;SDS011;41120;51.820;20.804;2023-04-15T15:51:10;3.00;;;1.67;;
51957;SDS011;41120;51.820;20.804;2023-04-15T15:53:56;2.37;;;1.80;;
51957;SDS011;41120;51.820;20.804;2023-04-15T16:01:34;3.43;;;1.80;;
51957;SDS011;41120;51.820;20.804;2023-04-15T16:04:02;3.37;;;1.80;;
51957;SDS011;41120;51.820;20.804;2023-04-15T16:06:33;1.63;;;1.40;;
51957;SDS011;41120;51.820;20.804;2023-04-15T16:09:06;2.55;;;1.85;;
51957;SDS011;41120;51.820;20.804;2023-04-15T16:12:03;2.58;;;1.70;;
51957;SDS011;41120;51.820;20.804;2023-04-15T16:14:38;3.40;;;1.83;;
51957;SDS011;41120;51.820;20.804;2023-04-15T16:17:04;2.90;;;1.73;;
51957;SDS011;41120;51.820;20.804;2023-04-15T16:19:31;3.13;;;2.17;;
51957;SDS011;41120;51.820;20.804;2023-04-15T16:21:57;4.27;;;2.40;;
51957;SDS011;41120;51.820;20.804;2023-04-15T16:24:32;3.80;;;2.35;;
51957;SDS011;41120;51.820;20.804;2023-04-15T16:27:01;3.75;;;2.30;;
51957;SDS011;41120;51.820;20.804;2023-04-15T16:29:29;3.73;;;2.47;;
51957;SDS011;41120;51.820;20.804;2023-04-15T16:32:02;1.20;;;1.10;;
51957;SDS011;41120;51.820;20.804;2023-04-15T16:37:03;2.00;;;1.30;;
51957;SDS011;41120;51.820;20.804;2023-04-15T16:39:30;1.40;;;1.30;;
51957;SDS011;41120;51.820;20.804;2023-04-15T16:41:56;2.27;;;1.50;;
51957;SDS011;41120;51.820;20.804;2023-04-15T16:44:25;2.97;;;1.80;;
51957;SDS011;41120;51.820;20.804;2023-04-15T16:49:43;3.83;;;1.90;;
51957;SDS011;41120;51.820;20.804;2023-04-15T16:52:14;3.73;;;2.07;;
51957;SDS011;41120;51.820;20.804;2023-04-15T16:54:42;2.43;;;2.00;;
51957;SDS011;41120;51.820;20.804;2023-04-15T16:57:15;2.77;;;1.80;;
51957;SDS011;41120;51.820;20.804;2023-04-15T16:59:45;4.37;;;2.50;;
51957;SDS011;41120;51.820;20.804;2023-04-15T17:02:19;4.63;;;2.70;;
51957;SDS011;41120;51.820;20.804;2023-04-15T17:05:12;3.17;;;2.30;;
51957;SDS011;41120;51.820;20.804;2023-04-15T17:08:18;3.13;;;2.03;;
51957;SDS011;41120;51.820;20.804;2023-04-15T17:11:04;4.50;;;2.40;;
51957;SDS011;41120;51.820;20.804;2023-04-15T17:13:39;3.00;;;2.57;;
51957;SDS011;41120;51.820;20.804;2023-04-15T17:16:13;3.97;;;3.13;;
51957;SDS011;41120;51.820;20.804;2023-04-15T17:18:44;3.40;;;2.20;;
51957;SDS011;41120;51.820;20.804;2023-04-15T17:21:12;4.57;;;2.60;;
51957;SDS011;41120;51.820;20.804;2023-04-15T17:23:41;3.60;;;2.40;;
51957;SDS011;41120;51.820;20.804;2023-04-15T17:26:08;3.60;;;2.37;;
51957;SDS011;41120;51.820;20.804;2023-04-15T17:28:35;4.30;;;2.17;;
51957;SDS011;41120;51.820;20.804;2023-04-15T17:31:02;3.27;;;2.57;;
51957;SDS011;41120;51.820;20.804;2023-04-15T17:33:30;3.63;;;2.60;;
51957;SDS011;41120;51.820;20.804;2023-04-15T17:38:29;4.87;;;3.67;;
51957;SDS011;41120;51.820;20.804;2023-04-15T17:43:25;7.67;;;4.73;;
51957;SDS011;41120;51.820;20.804;2023-04-15T17:45:52;7.17;;;4.80;;
51957;SDS011;41120;51.820;20.804;2023-04-15T17:48:19;7.97;;;5.43;;
51957;SDS011;41120;51.820;20.804;2023-04-15T17:50:46;9.37;;;5.27;;
51957;SDS011;41120;51.820;20.804;2023-04-15T17:53:14;10.10;;;6.97;;
51957;SDS011;41120;51.820;20.804;2023-04-15T17:55:43;8.27;;;5.40;;
51957;SDS011;41120;51.820;20.804;2023-04-15T17:58:10;7.20;;;5.13;;
51957;SDS011;41120;51.820;20.804;2023-04-15T18:00:47;8.57;;;5.30;;
51957;SDS011;41120;51.820;20.804;2023-04-15T18:03:25;7.20;;;4.67;;
51957;SDS011;41120;51.820;20.804;2023-04-15T18:05:55;4.87;;;3.67;;
51957;SDS011;41120;51.820;20.804;2023-04-15T18:08:28;6.03;;;4.00;;
51957;SDS011;41120;51.820;20.804;2023-04-15T18:10:57;7.13;;;4.63;;
51957;SDS011;41120;51.820;20.804;2023-04-15T18:16:11;6.70;;;4.38;;
51957;SDS011;41120;51.820;20.804;2023-04-15T18:18:40;9.03;;;4.80;;
51957;SDS011;41120;51.820;20.804;2023-04-15T18:24:21;7.65;;;4.88;;
51957;SDS011;41120;51.820;20.804;2023-04-15T18:30:49;7.70;;;5.00;;
51957;SDS011;41120;51.820;20.804;2023-04-15T18:34:10;6.57;;;3.80;;
51957;SDS011;41120;51.820;20.804;2023-04-15T18:37:41;6.77;;;4.53;;
51957;SDS011;41120;51.820;20.804;2023-04-15T18:40:32;10.17;;;5.10;;
51957;SDS011;41120;51.820;20.804;2023-04-15T18:56:52;12.97;;;7.87;;
51957;SDS011;41120;51.820;20.804;2023-04-15T19:06:08;16.98;;;12.18;;
51957;SDS011;41120;51.820;20.804;2023-04-15T19:08:59;14.63;;;9.80;;
51957;SDS011;41120;51.820;20.804;2023-04-15T19:11:25;12.43;;;9.30;;
51957;SDS011;41120;51.820;20.804;2023-04-15T19:13:51;12.73;;;8.23;;
51957;SDS011;41120;51.820;20.804;2023-04-15T19:16:26;16.13;;;10.37;;
51957;SDS011;41120;51.820;20.804;2023-04-15T19:19:02;19.67;;;12.37;;
51957;SDS011;41120;51.820;20.804;2023-04-15T19:21:29;18.33;;;13.07;;
51957;SDS011;41120;51.820;20.804;2023-04-15T19:24:22;19.47;;;14.00;;
51957;SDS011;41120;51.820;20.804;2023-04-15T19:27:05;18.73;;;13.30;;
51957;SDS011;41120;51.820;20.804;2023-04-15T19:29:39;14.77;;;9.20;;
51957;SDS011;41120;51.820;20.804;2023-04-15T19:32:20;9.77;;;6.17;;
51957;SDS011;41120;51.820;20.804;2023-04-15T19:35:05;8.17;;;5.23;;
51957;SDS011;41120;51.820;20.804;2023-04-15T19:37:46;7.93;;;5.40;;
51957;SDS011;41120;51.820;20.804;2023-04-15T19:40:15;8.17;;;5.47;;
51957;SDS011;41120;51.820;20.804;2023-04-15T19:46:25;7.50;;;5.53;;
51957;SDS011;41120;51.820;20.804;2023-04-15T19:48:52;7.57;;;4.90;;
51957;SDS011;41120;51.820;20.804;2023-04-15T19:51:19;6.33;;;4.90;;
51957;SDS011;41120;51.820;20.804;2023-04-15T19:53:46;6.90;;;4.33;;
51957;SDS011;41120;51.820;20.804;2023-04-15T19:59:15;7.50;;;4.83;;
51957;SDS011;41120;51.820;20.804;2023-04-15T20:02:43;8.40;;;5.50;;
51957;SDS011;41120;51.820;20.804;2023-04-15T20:05:25;8.17;;;5.20;;
51957;SDS011;41120;51.820;20.804;2023-04-15T20:07:52;6.67;;;5.00;;
51957;SDS011;41120;51.820;20.804;2023-04-15T20:10:21;6.70;;;5.00;;
51957;SDS011;41120;51.820;20.804;2023-04-15T20:12:53;5.77;;;4.53;;
51957;SDS011;41120;51.820;20.804;2023-04-15T20:15:19;6.17;;;4.33;;
51957;SDS011;41120;51.820;20.804;2023-04-15T20:17:49;7.63;;;4.23;;
51957;SDS011;41120;51.820;20.804;2023-04-15T20:20:18;6.10;;;4.30;;